Time;durP1;ratioP1;P1;durP2;ratioP2;P2;SDS_P1;SDS_P2;PMS_P1;PMS_P2;Temp;Humidity;BMP_temperature;BMP_pressure;BME280_temperature;BME280_humidity;BME280_pressure;Samples;Min_cycle;Max_cycle;Signal;HPM_P1;HPM_P2
2023/07/02 00:01:41;;;;;;;2.60;1.30;;;16.20;99.90;;;;;;5047145;28;20120;-72
2023/07/02 00:04:08;;;;;;;4.35;1.77;;;16.20;99.90;;;;;;5072609;28;20118;-72
2023/07/02 00:06:40;;;;;;;4.50;1.83;;;16.10;99.90;;;;;;5073098;28;20052;-72
2023/07/02 00:09:06;;;;;;;5.00;1.90;;;16.10;99.90;;;;;;5072190;28;20317;-71
2023/07/02 00:11:32;;;;;;;4.70;1.88;;;16.10;99.90;;;;;;5079024;28;20490;-72
2023/07/02 00:13:58;;;;;;;6.95;1.45;;;16.10;99.90;;;;;;5071083;28;20040;-71
2023/07/02 00:16:23;;;;;;;3.20;1.50;;;16.10;99.90;;;;;;5070988;28;20037;-71
2023/07/02 00:18:52;;;;;;;4.82;1.52;;;16.10;99.90;;;;;;5069464;28;20093;-72
2023/07/02 00:21:19;;;;;;;7.25;1.73;;;16.10;99.90;;;;;;5070520;28;20035;-71
2023/07/02 00:23:44;;;;;;;4.38;1.65;;;16.10;99.90;;;;;;5071160;28;20089;-72
2023/07/02 00:26:10;;;;;;;6.78;2.13;;;16.10;99.90;;;;;;5071588;28;20045;-72
2023/07/02 00:28:36;;;;;;;5.22;1.92;;;16.10;99.90;;;;;;5067829;28;20036;-72
2023/07/02 00:31:02;;;;;;;4.18;1.50;;;16.10;99.90;;;;;;5066013;28;20044;-72
2023/07/02 00:33:28;;;;;;;5.13;1.70;;;16.10;99.90;;;;;;5085443;28;20041;-72
2023/07/02 00:35:54;;;;;;;4.32;1.95;;;16.10;99.90;;;;;;5066761;28;20044;-72
2023/07/02 00:38:20;;;;;;;7.63;1.95;;;16.10;99.90;;;;;;5073378;28;20059;-72
2023/07/02 00:40:46;;;;;;;6.53;2.10;;;16.10;99.90;;;;;;5078157;28;20485;-72
2023/07/02 00:43:12;;;;;;;5.93;1.83;;;16.00;99.90;;;;;;5087949;28;20055;-72
2023/07/02 00:45:39;;;;;;;5.38;1.92;;;16.00;99.90;;;;;;5058922;28;20048;-72
2023/07/02 00:48:06;;;;;;;8.65;1.83;;;16.00;99.90;;;;;;5070298;28;20047;-72
2023/07/02 00:50:32;;;;;;;6.63;2.00;;;16.00;99.90;;;;;;5070525;28;20044;-72
2023/07/02 00:52:58;;;;;;;6.63;2.00;;;15.90;99.90;;;;;;5043526;28;20059;-72
2023/07/02 00:55:24;;;;;;;7.75;2.03;;;15.90;99.90;;;;;;5047387;28;20136;-72
2023/07/02 00:57:50;;;;;;;6.40;1.98;;;15.90;99.90;;;;;;5066179;28;20029;-72
2023/07/02 01:00:16;;;;;;;9.00;1.90;;;15.80;99.90;;;;;;5066624;28;20386;-72
2023/07/02 01:02:44;;;;;;;5.78;1.90;;;15.80;99.90;;;;;;5067607;28;20078;-72
2023/07/02 01:05:16;;;;;;;7.88;2.00;;;15.70;99.90;;;;;;5077277;28;20474;-72
2023/07/02 01:07:42;;;;;;;8.68;1.92;;;15.80;99.90;;;;;;5068821;28;20032;-72
2023/07/02 01:10:08;;;;;;;6.72;2.08;;;15.70;99.90;;;;;;5070625;28;20036;-72
2023/07/02 01:12:36;;;;;;;9.20;2.30;;;15.60;99.90;;;;;;5071078;28;20040;-72
2023/07/02 01:15:04;;;;;;;6.38;1.92;;;15.50;99.90;;;;;;5049014;28;20451;-72
2023/07/02 01:17:39;;;;;;;6.03;1.85;;;15.60;99.90;;;;;;5070876;28;20555;-72
2023/07/02 01:20:08;;;;;;;10.60;2.33;;;15.50;99.90;;;;;;5078517;28;20043;-72
2023/07/02 01:22:34;;;;;;;6.13;2.40;;;15.50;99.90;;;;;;5066787;28;20086;-72
2023/07/02 01:25:00;;;;;;;8.30;2.63;;;15.40;99.90;;;;;;5077815;28;20248;-72
2023/07/02 01:27:29;;;;;;;7.45;2.30;;;15.40;99.90;;;;;;5069570;28;20098;-72
2023/07/02 01:29:55;;;;;;;8.98;2.10;;;15.30;99.90;;;;;;5066883;28;20537;-72
2023/07/02 01:32:21;;;;;;;7.60;2.47;;;15.30;99.90;;;;;;5066541;28;20151;-72
2023/07/02 01:34:53;;;;;;;5.50;2.03;;;15.30;99.90;;;;;;5049752;28;20482;-72
2023/07/02 01:37:19;;;;;;;5.43;2.53;;;15.30;99.90;;;;;;5070193;28;20044;-72
2023/07/02 01:39:44;;;;;;;11.73;2.35;;;15.20;99.90;;;;;;5066189;28;20427;-71
2023/07/02 01:42:15;;;;;;;11.27;2.40;;;15.20;99.90;;;;;;5071261;28;20047;-72
2023/07/02 01:44:41;;;;;;;7.20;2.50;;;15.20;99.90;;;;;;5066762;28;20032;-72
2023/07/02 01:47:07;;;;;;;4.47;2.33;;;15.10;99.90;;;;;;5065633;28;20043;-71
2023/07/02 01:49:32;;;;;;;6.43;2.00;;;15.10;99.90;;;;;;5052690;28;20044;-72
2023/07/02 01:51:58;;;;;;;8.63;2.42;;;15.10;99.90;;;;;;5070851;28;20042;-71
2023/07/02 01:54:28;;;;;;;7.43;2.45;;;15.00;99.90;;;;;;5065122;28;20036;-72
2023/07/02 01:56:54;;;;;;;7.20;2.22;;;15.00;99.90;;;;;;5067814;28;20036;-72
2023/07/02 01:59:20;;;;;;;7.55;2.28;;;15.00;99.90;;;;;;5061678;28;20383;-71
2023/07/02 02:01:46;;;;;;;8.05;2.38;;;15.00;99.90;;;;;;5069557;28;20032;-71
2023/07/02 02:04:11;;;;;;;6.72;2.35;;;14.90;99.90;;;;;;5053986;28;20469;-71
2023/07/02 02:06:38;;;;;;;10.60;2.60;;;14.90;99.90;;;;;;5082639;28;20060;-72
2023/07/02 02:09:04;;;;;;;14.95;3.65;;;14.90;99.90;;;;;;5082089;28;20435;-72
2023/07/02 02:11:34;;;;;;;10.90;2.95;;;14.80;99.90;;;;;;5069907;28;20036;-71
2023/07/02 02:14:01;;;;;;;9.10;2.60;;;14.80;99.90;;;;;;5069498;28;20063;-72
2023/07/02 02:16:27;;;;;;;9.85;3.00;;;14.80;99.90;;;;;;5067849;28;20063;-71
2023/07/02 02:18:53;;;;;;;9.43;2.45;;;14.80;99.90;;;;;;5069306;28;20024;-72
2023/07/02 02:21:19;;;;;;;7.97;2.60;;;14.80;99.90;;;;;;5049815;28;20505;-72
2023/07/02 02:23:45;;;;;;;10.07;2.28;;;14.80;99.90;;;;;;5049301;28;20506;-72
2023/07/02 02:26:11;;;;;;;8.63;3.33;;;14.80;99.90;;;;;;5051633;28;20040;-71
2023/07/02 02:28:37;;;;;;;8.55;2.95;;;14.70;99.90;;;;;;5050162;28;20733;-71
2023/07/02 02:31:03;;;;;;;9.77;2.38;;;14.70;99.90;;;;;;5081899;28;20535;-72
2023/07/02 02:33:28;;;;;;;7.68;2.47;;;14.70;99.90;;;;;;5066481;28;20504;-72
2023/07/02 02:35:54;;;;;;;6.05;2.42;;;14.70;99.90;;;;;;5065599;28;20409;-71
2023/07/02 02:38:19;;;;;;;8.45;2.30;;;14.70;99.90;;;;;;5053257;28;20058;-71
2023/07/02 02:40:45;;;;;;;5.20;2.33;;;14.60;99.90;;;;;;5066407;28;20133;-71
2023/07/02 02:43:11;;;;;;;9.05;2.67;;;14.60;99.90;;;;;;5049014;28;20036;-72
2023/07/02 02:45:36;;;;;;;10.52;2.33;;;14.60;99.90;;;;;;5051524;28;20036;-71
2023/07/02 02:48:02;;;;;;;6.88;2.45;;;14.60;99.90;;;;;;5078025;28;20044;-72
2023/07/02 02:50:27;;;;;;;11.75;2.88;;;14.60;99.90;;;;;;5066298;28;20044;-72
2023/07/02 02:52:53;;;;;;;10.65;2.60;;;14.60;99.90;;;;;;5062538;28;20474;-72
2023/07/02 02:55:19;;;;;;;7.85;2.60;;;14.60;99.90;;;;;;5073564;28;20564;-73
2023/07/02 02:57:45;;;;;;;12.75;3.10;;;14.60;99.90;;;;;;5062082;28;20049;-72
2023/07/02 03:00:11;;;;;;;9.30;2.92;;;14.50;99.90;;;;;;5052720;28;20503;-72
2023/07/02 03:02:37;;;;;;;14.32;2.88;;;14.50;99.90;;;;;;5070604;28;20036;-72
2023/07/02 03:05:04;;;;;;;9.82;2.30;;;14.50;99.90;;;;;;5064587;28;20024;-72
2023/07/02 03:07:31;;;;;;;8.90;2.72;;;14.50;99.90;;;;;;5077734;28;20126;-72
2023/07/02 03:09:56;;;;;;;11.55;2.80;;;14.50;99.90;;;;;;5070355;28;20047;-72
2023/07/02 03:12:22;;;;;;;7.97;3.08;;;14.50;99.90;;;;;;5073049;28;20040;-72
2023/07/02 03:14:52;;;;;;;9.00;3.97;;;14.50;99.90;;;;;;5070404;28;20035;-72
2023/07/02 03:17:19;;;;;;;8.45;2.88;;;14.50;99.90;;;;;;5067134;28;20147;-72
2023/07/02 03:19:44;;;;;;;10.65;3.30;;;14.40;99.90;;;;;;5067867;28;20417;-72
2023/07/02 03:22:10;;;;;;;9.68;2.70;;;14.40;99.90;;;;;;5066464;28;20040;-72
2023/07/02 03:24:35;;;;;;;8.93;2.47;;;14.30;99.90;;;;;;5064402;28;20047;-71
2023/07/02 03:27:01;;;;;;;7.78;2.70;;;14.30;99.90;;;;;;5063658;28;20465;-72
2023/07/02 03:29:27;;;;;;;9.10;2.85;;;14.20;99.90;;;;;;5070241;28;20048;-72
2023/07/02 03:31:52;;;;;;;9.63;2.67;;;14.20;99.90;;;;;;5072144;28;20433;-71
2023/07/02 03:34:18;;;;;;;8.05;2.85;;;14.20;99.90;;;;;;5067528;28;20066;-72
2023/07/02 03:36:44;;;;;;;9.02;2.60;;;14.20;99.90;;;;;;5051687;28;20107;-71
2023/07/02 03:39:10;;;;;;;11.65;2.70;;;14.20;99.90;;;;;;5055157;28;20278;-71
2023/07/02 03:41:35;;;;;;;7.53;2.70;;;14.20;99.90;;;;;;5055335;28;20324;-72
2023/07/02 03:44:01;;;;;;;10.75;3.17;;;14.30;99.90;;;;;;5078632;28;20028;-71
2023/07/02 03:46:27;;;;;;;9.65;2.58;;;14.30;99.90;;;;;;5088699;28;20122;-72
2023/07/02 03:48:52;;;;;;;10.10;2.92;;;14.30;99.90;;;;;;5070498;28;20036;-72
2023/07/02 03:51:18;;;;;;;13.18;2.80;;;14.30;99.90;;;;;;5049871;28;20047;-72
2023/07/02 03:53:43;;;;;;;9.02;2.33;;;14.30;99.90;;;;;;5052825;28;20194;-72
2023/07/02 03:56:09;;;;;;;6.60;2.55;;;14.30;99.90;;;;;;5063812;28;20434;-72
2023/07/02 03:58:35;;;;;;;10.57;2.88;;;14.20;99.90;;;;;;5073425;28;20466;-72
2023/07/02 04:01:01;;;;;;;11.30;3.03;;;14.20;99.90;;;;;;5074279;28;20029;-72
2023/07/02 04:03:26;;;;;;;8.18;2.65;;;14.20;99.90;;;;;;5071136;28;20550;-71
2023/07/02 04:05:52;;;;;;;11.95;2.53;;;14.20;99.90;;;;;;5080070;28;20032;-72
2023/07/02 04:08:17;;;;;;;9.82;2.65;;;14.20;99.90;;;;;;5071725;28;20078;-72
2023/07/02 04:10:43;;;;;;;9.13;2.95;;;14.20;99.90;;;;;;5071162;28;20052;-72
2023/07/02 04:13:09;;;;;;;11.40;3.67;;;14.30;99.90;;;;;;5069660;28;20040;-72
2023/07/02 04:15:35;;;;;;;11.10;2.95;;;14.30;99.90;;;;;;5067129;28;20071;-72
2023/07/02 04:18:01;;;;;;;9.45;3.33;;;14.30;99.90;;;;;;5073516;28;20071;-72
2023/07/02 04:20:28;;;;;;;11.57;3.00;;;14.30;99.90;;;;;;5055854;28;20059;-72
2023/07/02 04:22:54;;;;;;;7.95;2.35;;;14.40;99.90;;;;;;5069126;28;20115;-72
2023/07/02 04:25:19;;;;;;;12.07;2.88;;;14.40;99.90;;;;;;5062383;28;20154;-72
2023/07/02 04:27:46;;;;;;;14.63;2.60;;;14.40;99.90;;;;;;5066205;28;20131;-72
2023/07/02 04:30:14;;;;;;;11.27;2.47;;;14.40;99.90;;;;;;5065289;28;20123;-72
2023/07/02 04:32:40;;;;;;;8.40;2.58;;;14.40;99.90;;;;;;5072319;28;20132;-72
2023/07/02 04:35:07;;;;;;;9.45;2.80;;;14.40;99.90;;;;;;5068032;28;20157;-72
2023/07/02 04:37:32;;;;;;;7.82;2.67;;;14.50;99.90;;;;;;5069449;28;20487;-72
2023/07/02 04:39:58;;;;;;;5.88;2.80;;;14.50;99.90;;;;;;5072500;28;20032;-72
2023/07/02 04:42:27;;;;;;;6.60;3.10;;;14.60;99.90;;;;;;5080019;28;20478;-72
2023/07/02 04:44:56;;;;;;;11.43;3.20;;;14.60;99.90;;;;;;5076546;28;20032;-72
2023/07/02 04:47:22;;;;;;;15.32;3.70;;;14.70;99.90;;;;;;5080542;28;20043;-72
2023/07/02 04:49:47;;;;;;;12.73;3.10;;;14.70;99.90;;;;;;5068082;28;20421;-72
2023/07/02 04:52:13;;;;;;;9.98;2.67;;;14.70;99.90;;;;;;5052174;28;20039;-72
2023/07/02 04:54:39;;;;;;;10.68;2.83;;;14.70;99.90;;;;;;5067791;28;20082;-72
2023/07/02 04:57:04;;;;;;;11.07;2.50;;;14.70;99.90;;;;;;5056918;28;20041;-72
2023/07/02 04:59:30;;;;;;;11.98;3.33;;;14.70;99.90;;;;;;5068454;28;20048;-72
2023/07/02 05:01:55;;;;;;;10.18;3.17;;;14.70;99.90;;;;;;5067962;28;20043;-72
2023/07/02 05:04:21;;;;;;;5.88;2.40;;;14.70;99.90;;;;;;5063686;28;20040;-72
2023/07/02 05:06:47;;;;;;;12.25;2.70;;;14.70;99.90;;;;;;5069403;28;20194;-72
2023/07/02 05:09:12;;;;;;;12.68;3.08;;;14.80;99.90;;;;;;5068507;28;20136;-72
2023/07/02 05:11:38;;;;;;;9.55;2.70;;;14.80;99.90;;;;;;5070853;28;20036;-72
2023/07/02 05:14:03;;;;;;;9.30;3.00;;;14.80;99.90;;;;;;5068080;28;20043;-72
2023/07/02 05:16:29;;;;;;;10.60;2.72;;;14.90;99.90;;;;;;5075307;28;20048;-72
2023/07/02 05:18:55;;;;;;;9.95;2.83;;;14.90;99.90;;;;;;5074246;28;20033;-72
2023/07/02 05:21:20;;;;;;;10.68;2.38;;;14.90;99.90;;;;;;5070113;28;20323;-72
2023/07/02 05:23:47;;;;;;;9.52;2.53;;;15.00;99.90;;;;;;5078740;28;20060;-72
2023/07/02 05:26:12;;;;;;;8.43;3.05;;;14.90;99.90;;;;;;5063607;28;20127;-72
2023/07/02 05:28:38;;;;;;;6.38;2.35;;;15.00;99.90;;;;;;5048327;28;20123;-72
2023/07/02 05:31:04;;;;;;;10.25;2.50;;;15.00;99.90;;;;;;5072595;28;20067;-72
2023/07/02 05:33:32;;;;;;;11.98;2.63;;;15.00;99.90;;;;;;5073345;28;20040;-72
2023/07/02 05:35:57;;;;;;;6.60;2.28;;;15.10;99.90;;;;;;5061975;28;20158;-72
2023/07/02 05:38:24;;;;;;;14.73;2.63;;;15.10;99.90;;;;;;5066355;28;20506;-72
2023/07/02 05:40:49;;;;;;;8.88;2.38;;;15.10;99.90;;;;;;5072097;28;20032;-72
2023/07/02 05:43:15;;;;;;;10.35;2.67;;;15.20;99.90;;;;;;5077642;28;20143;-72
2023/07/02 05:45:41;;;;;;;7.78;2.70;;;15.20;99.90;;;;;;5059597;28;20310;-72
2023/07/02 05:48:06;;;;;;;11.05;2.92;;;15.20;99.90;;;;;;5069996;28;20131;-72
2023/07/02 05:50:32;;;;;;;7.57;2.53;;;15.20;99.90;;;;;;5060426;28;20063;-72
2023/07/02 05:52:57;;;;;;;9.23;2.55;;;15.30;99.90;;;;;;5077854;28;20124;-72
2023/07/02 05:55:23;;;;;;;6.30;2.30;;;15.30;99.90;;;;;;5062302;28;20032;-72
2023/07/02 05:57:49;;;;;;;8.00;2.70;;;15.30;99.90;;;;;;5061913;28;20040;-72
2023/07/02 06:00:15;;;;;;;8.48;2.85;;;15.40;99.90;;;;;;5065972;28;20661;-72
2023/07/02 06:02:41;;;;;;;8.02;2.17;;;15.50;99.90;;;;;;5058850;28;20127;-72
2023/07/02 06:05:07;;;;;;;8.38;2.15;;;15.50;99.90;;;;;;5066781;28;20045;-72
2023/07/02 06:07:32;;;;;;;8.80;2.10;;;15.50;99.90;;;;;;5068808;28;20059;-72
2023/07/02 06:09:58;;;;;;;10.18;2.50;;;15.60;99.90;;;;;;5070192;28;20040;-72
2023/07/02 06:12:23;;;;;;;8.00;2.50;;;15.60;99.90;;;;;;5072512;28;20047;-72
2023/07/02 06:14:49;;;;;;;12.15;2.63;;;15.70;99.90;;;;;;5064053;28;20036;-72
2023/07/02 06:17:15;;;;;;;11.85;2.95;;;15.80;99.90;;;;;;5059324;28;20259;-72
2023/07/02 06:19:44;;;;;;;8.07;2.75;;;15.90;99.90;;;;;;5066384;28;20068;-72
2023/07/02 06:22:10;;;;;;;5.55;1.90;;;15.90;99.90;;;;;;5056047;28;20040;-72
2023/07/02 06:24:35;;;;;;;7.53;2.00;;;16.00;99.90;;;;;;5065048;28;20044;-72
2023/07/02 06:27:01;;;;;;;8.98;2.58;;;16.00;99.90;;;;;;5066970;28;20933;-70
2023/07/02 06:29:28;;;;;;;9.75;2.97;;;16.20;99.90;;;;;;5063818;28;20131;-72
2023/07/02 06:31:53;;;;;;;14.27;2.53;;;16.30;99.90;;;;;;5067901;28;20127;-72
2023/07/02 06:34:19;;;;;;;9.75;2.40;;;16.30;99.90;;;;;;5071357;28;20143;-72
2023/07/02 06:36:45;;;;;;;9.35;2.50;;;16.40;99.90;;;;;;5059227;28;20068;-72
2023/07/02 06:39:11;;;;;;;6.32;2.38;;;16.30;99.90;;;;;;5063145;28;20094;-72
2023/07/02 06:41:36;;;;;;;9.40;2.53;;;16.30;99.90;;;;;;5064656;28;20712;-73
2023/07/02 06:44:02;;;;;;;12.90;2.17;;;16.20;99.90;;;;;;5061893;28;20028;-73
2023/07/02 06:46:28;;;;;;;14.82;2.72;;;16.10;99.90;;;;;;5067106;28;20367;-74
2023/07/02 06:48:55;;;;;;;7.47;2.30;;;16.00;99.90;;;;;;5058531;28;20478;-73
2023/07/02 06:51:21;;;;;;;11.77;2.55;;;15.90;99.90;;;;;;5060034;28;20311;-73
2023/07/02 06:53:47;;;;;;;11.88;2.55;;;16.00;99.90;;;;;;5065349;28;20036;-73
2023/07/02 06:56:12;;;;;;;11.05;2.47;;;16.50;99.90;;;;;;5053493;28;20078;-74
2023/07/02 06:58:42;;;;;;;9.60;2.17;;;16.90;99.90;;;;;;5065438;28;20474;-73
2023/07/02 07:01:08;;;;;;;8.88;2.17;;;17.00;99.90;;;;;;5043820;28;21829;-73
2023/07/02 07:03:35;;;;;;;12.05;2.22;;;17.20;99.90;;;;;;5055877;28;20043;-72
2023/07/02 07:06:01;;;;;;;8.85;2.28;;;17.30;99.90;;;;;;5057401;28;20379;-72
2023/07/02 07:08:26;;;;;;;9.52;2.60;;;17.20;99.90;;;;;;5058682;28;20047;-73
2023/07/02 07:10:52;;;;;;;6.88;2.42;;;17.20;99.90;;;;;;5056993;28;20092;-73
2023/07/02 07:13:18;;;;;;;8.60;2.28;;;17.10;99.90;;;;;;5052688;28;20143;-73
2023/07/02 07:15:43;;;;;;;4.85;2.38;;;17.00;99.90;;;;;;5044353;28;20241;-73
2023/07/02 07:18:10;;;;;;;5.82;2.38;;;16.90;99.90;;;;;;5065638;28;20363;-74
2023/07/02 07:20:36;;;;;;;6.60;1.92;;;16.80;99.90;;;;;;5065670;28;20037;-73
2023/07/02 07:23:03;;;;;;;7.80;1.98;;;16.70;99.90;;;;;;5064911;28;20035;-73
2023/07/02 07:25:28;;;;;;;7.38;2.00;;;16.60;99.90;;;;;;5059776;28;20064;-73
2023/07/02 07:27:54;;;;;;;7.32;2.15;;;16.50;99.90;;;;;;5065000;28;20045;-72
2023/07/02 07:30:22;;;;;;;8.80;2.05;;;16.50;99.90;;;;;;5048809;28;20589;-73
2023/07/02 07:32:51;;;;;;;7.20;2.00;;;16.60;99.90;;;;;;5064579;28;20093;-73
2023/07/02 07:35:18;;;;;;;6.50;1.85;;;16.70;99.90;;;;;;5059625;28;20599;-72
2023/07/02 07:37:44;;;;;;;5.95;1.83;;;16.80;99.90;;;;;;5059040;28;20028;-72
2023/07/02 07:40:10;;;;;;;6.40;1.65;;;16.90;99.90;;;;;;5050973;28;20059;-73
2023/07/02 07:42:36;;;;;;;4.72;1.35;;;17.00;99.90;;;;;;5066456;28;20032;-72
2023/07/02 07:45:03;;;;;;;8.13;1.83;;;17.20;99.90;;;;;;5079823;28;20525;-73
2023/07/02 07:47:29;;;;;;;4.75;1.30;;;17.20;99.90;;;;;;5065383;28;20052;-73
2023/07/02 07:49:54;;;;;;;3.65;1.20;;;17.30;99.90;;;;;;5069798;28;20036;-72
2023/07/02 07:52:20;;;;;;;5.60;1.63;;;17.30;99.90;;;;;;5081993;28;20032;-73
2023/07/02 07:54:46;;;;;;;7.45;1.90;;;17.20;99.90;;;;;;5062836;28;20028;-73
2023/07/02 07:57:12;;;;;;;3.92;1.48;;;17.10;99.90;;;;;;5068354;28;20029;-73
2023/07/02 07:59:37;;;;;;;4.53;1.27;;;17.00;99.90;;;;;;5084666;28;20139;-73
2023/07/02 08:02:03;;;;;;;6.07;1.40;;;17.00;99.90;;;;;;5076946;28;20182;-73
2023/07/02 08:04:29;;;;;;;5.53;1.70;;;17.00;99.90;;;;;;5064616;28;20024;-72
2023/07/02 08:06:56;;;;;;;8.70;1.23;;;17.00;99.90;;;;;;5063058;28;20749;-72
2023/07/02 08:09:23;;;;;;;4.35;1.50;;;17.20;99.90;;;;;;5065654;28;20028;-73
2023/07/02 08:11:48;;;;;;;3.88;1.50;;;17.30;99.90;;;;;;5067301;28;20174;-73
2023/07/02 08:14:14;;;;;;;4.68;1.33;;;17.40;99.90;;;;;;5069211;28;20077;-73
2023/07/02 08:16:40;;;;;;;4.53;1.30;;;17.20;99.90;;;;;;5061575;28;20520;-70
2023/07/02 08:19:05;;;;;;;4.55;1.10;;;17.20;99.90;;;;;;5065890;28;20040;-71
2023/07/02 08:21:31;;;;;;;3.92;1.20;;;17.10;99.90;;;;;;5061351;28;20040;-72
2023/07/02 08:23:57;;;;;;;6.15;1.48;;;17.20;99.90;;;;;;5047235;28;20041;-72
2023/07/02 08:26:23;;;;;;;2.70;1.35;;;17.30;99.90;;;;;;5064181;28;20053;-72
2023/07/02 08:28:48;;;;;;;4.50;1.33;;;17.40;99.80;;;;;;5045367;28;20060;-72
2023/07/02 08:31:14;;;;;;;5.38;1.15;;;17.50;99.70;;;;;;5068746;28;20040;-71
2023/07/02 08:33:40;;;;;;;4.55;1.48;;;17.60;99.80;;;;;;5067586;28;20481;-72
2023/07/02 08:36:06;;;;;;;5.50;1.55;;;17.70;99.70;;;;;;5065220;28;20036;-72
2023/07/02 08:38:31;;;;;;;4.53;1.50;;;17.70;99.40;;;;;;5080482;28;20029;-72
2023/07/02 08:40:57;;;;;;;5.88;1.58;;;17.80;99.30;;;;;;5069343;28;20033;-72
2023/07/02 08:43:25;;;;;;;3.83;1.30;;;17.70;99.20;;;;;;5066897;28;20093;-72
2023/07/02 08:45:52;;;;;;;5.82;1.35;;;17.70;99.10;;;;;;5066913;28;20029;-72
2023/07/02 08:48:22;;;;;;;2.97;1.30;;;17.60;99.10;;;;;;5061504;28;20040;-71
2023/07/02 08:50:49;;;;;;;5.45;1.42;;;17.50;99.00;;;;;;5066851;28;20086;-72
2023/07/02 08:53:14;;;;;;;7.13;1.42;;;17.30;98.80;;;;;;5078529;28;20037;-71
2023/07/02 08:55:40;;;;;;;2.53;1.23;;;17.20;98.80;;;;;;5067027;28;20504;-72
2023/07/02 08:58:06;;;;;;;3.25;0.88;;;17.10;99.00;;;;;;5066245;28;20036;-71
2023/07/02 09:00:36;;;;;;;4.05;0.98;;;17.10;99.00;;;;;;5066842;28;20037;-71
2023/07/02 09:03:18;;;;;;;2.90;1.15;;;17.10;99.00;;;;;;5056169;28;20036;-72
2023/07/02 09:05:51;;;;;;;5.75;2.03;;;17.10;98.70;;;;;;5076149;28;20104;-73
2023/07/02 09:08:27;;;;;;;6.22;1.55;;;17.20;98.80;;;;;;5067824;28;20127;-72
2023/07/02 09:11:09;;;;;;;5.20;1.67;;;17.10;98.60;;;;;;5064757;28;20028;-73
2023/07/02 09:13:49;;;;;;;6.03;1.55;;;17.10;98.90;;;;;;5070664;28;20048;-73
2023/07/02 09:16:22;;;;;;;4.18;1.35;;;17.00;99.30;;;;;;5050270;28;20093;-73
2023/07/02 09:19:04;;;;;;;6.00;1.30;;;16.90;99.50;;;;;;5073591;28;20042;-72
2023/07/02 09:21:43;;;;;;;7.03;1.98;;;16.90;99.90;;;;;;5051356;28;20481;-73
2023/07/02 09:24:20;;;;;;;6.22;1.77;;;16.90;99.90;;;;;;5063786;28;20048;-73
2023/07/02 09:26:50;;;;;;;2.95;1.40;;;16.90;99.90;;;;;;5067750;28;20096;-73
2023/07/02 09:29:28;;;;;;;9.63;1.48;;;17.00;99.90;;;;;;5065268;28;20268;-73
2023/07/02 09:31:56;;;;;;;5.15;1.38;;;17.20;99.90;;;;;;5063399;28;20097;-72
2023/07/02 09:34:28;;;;;;;4.38;1.77;;;17.40;99.90;;;;;;5067756;28;20032;-72
2023/07/02 09:36:54;;;;;;;7.72;2.13;;;17.50;99.80;;;;;;5067762;28;20040;-72
2023/07/02 09:39:26;;;;;;;4.30;1.70;;;17.60;99.80;;;;;;5066014;28;20036;-73
2023/07/02 09:41:52;;;;;;;4.18;1.23;;;17.70;99.80;;;;;;5073980;28;20533;-73
2023/07/02 09:44:18;;;;;;;5.65;1.73;;;17.70;99.70;;;;;;5075817;28;20036;-73
2023/07/02 09:47:05;;;;;;;3.53;1.50;;;17.70;99.50;;;;;;5062448;28;20656;-73
2023/07/02 09:49:40;;;;;;;5.45;1.60;;;17.60;98.90;;;;;;5078388;28;21486;-73
2023/07/02 09:52:11;;;;;;;6.55;1.90;;;17.50;99.10;;;;;;5048170;28;20409;-72
2023/07/02 09:54:38;;;;;;;5.18;1.40;;;17.50;99.20;;;;;;5061801;28;20067;-73
2023/07/02 09:57:06;;;;;;;10.18;1.75;;;17.50;99.40;;;;;;5053636;28;20397;-71
2023/07/02 09:59:31;;;;;;;6.60;1.50;;;17.50;99.40;;;;;;5049402;28;20036;-72
2023/07/02 10:01:57;;;;;;;2.72;1.50;;;17.50;99.30;;;;;;5064954;28;20403;-74
2023/07/02 10:04:26;;;;;;;4.50;1.50;;;17.60;98.90;;;;;;5067842;28;20138;-73
2023/07/02 10:06:53;;;;;;;4.28;1.08;;;17.60;98.80;;;;;;5064035;28;20081;-73
2023/07/02 10:09:20;;;;;;;4.45;1.40;;;17.70;98.60;;;;;;5073829;28;20036;-73
2023/07/02 10:11:46;;;;;;;2.40;0.98;;;17.80;98.20;;;;;;5076585;28;20398;-73
2023/07/02 10:14:12;;;;;;;6.00;1.35;;;17.80;98.10;;;;;;5058315;28;20211;-74
2023/07/02 10:16:54;;;;;;;3.70;1.15;;;17.90;98.00;;;;;;5063998;28;20048;-74
2023/07/02 10:19:20;;;;;;;2.30;1.00;;;18.00;97.80;;;;;;5064781;28;20115;-73
2023/07/02 10:21:48;;;;;;;3.78;1.13;;;18.10;98.00;;;;;;5063219;28;20173;-74
2023/07/02 10:24:16;;;;;;;4.28;1.40;;;18.10;97.90;;;;;;5056742;28;20123;-74
2023/07/02 10:26:54;;;;;;;5.90;1.20;;;18.10;97.60;;;;;;5067314;28;20098;-74
2023/07/02 10:29:20;;;;;;;6.93;1.60;;;18.10;97.10;;;;;;5052187;28;20037;-74
2023/07/02 10:31:53;;;;;;;4.93;1.33;;;18.10;97.60;;;;;;5067558;28;20048;-74
2023/07/02 10:34:35;;;;;;;4.93;1.20;;;18.00;97.40;;;;;;5068898;28;20078;-74
2023/07/02 10:37:02;;;;;;;5.30;1.38;;;17.90;97.50;;;;;;5076646;28;20085;-73
2023/07/02 10:39:31;;;;;;;5.40;1.17;;;17.90;97.80;;;;;;5064401;28;21508;-74
2023/07/02 10:42:05;;;;;;;4.45;1.30;;;18.00;97.80;;;;;;5066272;28;20500;-74
2023/07/02 10:44:31;;;;;;;6.78;1.60;;;18.00;98.00;;;;;;5063474;28;20111;-74
2023/07/02 10:46:57;;;;;;;4.78;1.20;;;18.10;98.10;;;;;;5071295;28;20750;-74
2023/07/02 10:49:33;;;;;;;7.57;1.67;;;18.10;98.00;;;;;;5074162;28;20044;-74
2023/07/02 10:52:03;;;;;;;5.65;1.40;;;18.00;96.80;;;;;;5058353;28;20447;-73
2023/07/02 10:54:58;;;;;;;6.53;1.52;;;17.90;97.60;;;;;;5068209;28;20051;-73
2023/07/02 10:57:24;;;;;;;3.95;1.30;;;17.80;97.50;;;;;;5063585;28;20059;-69
2023/07/02 10:59:50;;;;;;;4.50;1.40;;;17.90;97.90;;;;;;5048852;28;20036;-73
2023/07/02 11:02:16;;;;;;;6.03;1.40;;;18.00;97.80;;;;;;5054989;28;20037;-73
2023/07/02 11:04:41;;;;;;;6.28;1.20;;;18.10;97.80;;;;;;5062948;28;20042;-72
2023/07/02 11:07:07;;;;;;;4.88;1.33;;;18.10;97.60;;;;;;5079415;28;20040;-73
2023/07/02 11:09:33;;;;;;;7.30;1.35;;;18.00;97.30;;;;;;5075660;28;20110;-73
2023/07/02 11:12:00;;;;;;;1.88;0.98;;;17.90;97.00;;;;;;5071474;28;20047;-73
2023/07/02 11:14:36;;;;;;;2.78;1.13;;;17.90;97.00;;;;;;5076356;28;20044;-73
2023/07/02 11:17:06;;;;;;;6.43;1.42;;;17.80;96.60;;;;;;5074570;28;20049;-73
2023/07/02 11:19:35;;;;;;;7.63;1.55;;;17.80;96.70;;;;;;5064710;28;20492;-73
2023/07/02 11:22:02;;;;;;;4.30;1.52;;;17.70;96.70;;;;;;5077176;28;20768;-73
2023/07/02 11:24:32;;;;;;;4.57;1.58;;;17.80;96.90;;;;;;5055368;28;20224;-73
2023/07/02 11:27:00;;;;;;;4.05;1.17;;;17.80;96.90;;;;;;5065843;28;20095;-73
2023/07/02 11:29:25;;;;;;;5.47;1.40;;;17.90;96.90;;;;;;5064360;28;20037;-73
2023/07/02 11:31:51;;;;;;;4.95;1.42;;;18.00;97.00;;;;;;5074965;28;20551;-73
2023/07/02 11:34:20;;;;;;;6.53;1.38;;;18.00;96.90;;;;;;5071688;28;20076;-73
2023/07/02 11:36:46;;;;;;;7.53;1.70;;;18.10;97.00;;;;;;5067561;28;20045;-73
2023/07/02 11:39:17;;;;;;;5.25;1.05;;;18.20;97.00;;;;;;5062521;28;20082;-73
2023/07/02 11:41:44;;;;;;;3.58;0.98;;;18.10;96.80;;;;;;5071869;28;20486;-73
2023/07/02 11:44:10;;;;;;;3.22;1.20;;;18.10;96.60;;;;;;5072153;28;20033;-73
2023/07/02 11:46:36;;;;;;;4.00;1.75;;;18.20;96.50;;;;;;5065261;28;20398;-73
2023/07/02 11:49:08;;;;;;;4.50;1.00;;;18.40;96.40;;;;;;5075000;28;20047;-73
2023/07/02 11:51:37;;;;;;;3.25;1.20;;;18.40;96.10;;;;;;5063822;28;20033;-72
2023/07/02 11:54:04;;;;;;;5.50;1.20;;;18.50;95.80;;;;;;5079737;28;20513;-73
2023/07/02 11:56:30;;;;;;;6.68;1.33;;;18.60;95.50;;;;;;5071420;28;20040;-73
2023/07/02 11:58:56;;;;;;;4.15;1.55;;;18.60;95.00;;;;;;5065057;28;20528;-73
2023/07/02 12:01:22;;;;;;;5.80;1.20;;;18.50;95.00;;;;;;5065995;28;20223;-73
2023/07/02 12:03:47;;;;;;;4.47;1.35;;;18.40;94.70;;;;;;5068036;28;20028;-73
2023/07/02 12:06:13;;;;;;;6.93;1.45;;;18.30;95.10;;;;;;5066691;28;20090;-73
2023/07/02 12:08:38;;;;;;;3.50;1.42;;;18.20;95.00;;;;;;5070981;28;20405;-73
2023/07/02 12:11:04;;;;;;;4.00;1.23;;;18.10;95.10;;;;;;5070750;28;20244;-73
2023/07/02 12:13:30;;;;;;;5.70;1.10;;;18.20;95.40;;;;;;5071153;28;20047;-73
2023/07/02 12:15:55;;;;;;;3.40;1.08;;;18.20;95.40;;;;;;5065421;28;20707;-73
2023/07/02 12:18:21;;;;;;;3.42;0.98;;;18.10;95.30;;;;;;5061468;28;20039;-73
2023/07/02 12:20:46;;;;;;;4.93;1.17;;;18.10;95.50;;;;;;5065627;28;20491;-72
2023/07/02 12:23:12;;;;;;;2.58;0.68;;;18.10;95.50;;;;;;5068695;28;20040;-73
2023/07/02 12:25:38;;;;;;;2.85;0.82;;;18.20;95.50;;;;;;5060549;28;20041;-73
2023/07/02 12:28:04;;;;;;;3.80;1.08;;;18.30;95.20;;;;;;5058243;28;20079;-73
2023/07/02 12:30:31;;;;;;;3.47;0.77;;;18.40;95.00;;;;;;5068311;28;20044;-73
2023/07/02 12:32:57;;;;;;;3.72;0.80;;;18.60;94.80;;;;;;5070595;28;20290;-73
2023/07/02 12:35:22;;;;;;;3.83;1.05;;;18.50;94.60;;;;;;5064349;28;20595;-73
2023/07/02 12:37:52;;;;;;;2.75;1.02;;;18.50;94.60;;;;;;5067158;28;20086;-73
2023/07/02 12:40:19;;;;;;;5.28;1.30;;;18.40;94.20;;;;;;5060961;28;20336;-73
2023/07/02 12:42:46;;;;;;;3.38;0.93;;;18.30;94.30;;;;;;5079723;28;20116;-73
2023/07/02 12:45:12;;;;;;;4.60;1.52;;;18.40;94.20;;;;;;5063740;28;20032;-74